เซียะเหมิน, Fujian

06:43 AM CST วัน พฤศจิกายน 01, 2014 (GMT +0800)
Gaoqi | Change Station
CLOSE
Current Station
Airport
Location: Xiamen,
Elevation: 59 ft
Nearby Weather Stations

Elev 59 ft 24.54 °N, 118.14 °E | Updated 43 minutes ago

Partly Cloudy
มีเมฆคลุมเป็นส่วนๆ
72 ฟาเรนไฮน์
Feels Like 72 ฟาเรนไฮน์
N
4
ลม ความผันแปร ลม from ทางทิศตะวันออกและทิศตะวันออกเฉียงเหนือ

วันนี้
High -- | Low -- ฟาเรนไฮน์
--% Chance of Precip.
Yesterday
High -- | Low -- ฟาเรนไฮน์
Precip. -- นิ้ว
6:14 AM 5:28 PM
ไตรมาสแรก, 59% visible
ความดัน 29.95 นิ้ว
ทัศนวิสัย 3.1 ไมล์
เมฆ Few 900 ft
อุณหภูมิที่อากาศอาจจับตัวเป็นหยาดน้ำค้าง 72 ฟาเรนไฮน์
ความชื้น 100%
Rainfall 0.00 นิ้ว
Snow Depth Not available.
UV 0 out of 12
Pollen Not available.
Air Quality Not available.
Flu Activity Not available.
METAR ZSAM 312200Z 06002MPS 5000 BR FEW009 22/22 Q1014 NOSIG

More Conditions Fewer Conditions

ความดัน 29.95 นิ้ว
ทัศนวิสัย 3.1 ไมล์
เมฆ Few 900 ft
อุณหภูมิที่อากาศอาจจับตัวเป็นหยาดน้ำค้าง 72 ฟาเรนไฮน์
ความชื้น 100%
Rainfall 0.00 นิ้ว
Snow Depth Not available.
UV 0 out of 12
Pollen Not available.
Air Quality Not available.
Flu Activity Not available.
METAR ZSAM 312200Z 06002MPS 5000 BR FEW009 22/22 Q1014 NOSIG

More Conditions Fewer Conditions

10-Day Weather Forecast

Almanac

ดาราศาสตร์

Nov. 01, 2014 Rise Set
Actual Time
Civil Twilight
Nautical Twilight
Astronomical Twilight
Moon
Length Of Visible Light
ความยาวของวัน
Tomorrow will be .
, % of the Moon is Illuminated

Today's Extremes

Country Highs Country Lows

Community

WunderPhotos

Upload Photos

1,766,770 photos uploaded!

WunderBlogs® & News

Nearby

Air Quality

  Air Quality AQ Index Pollutant
Not available.

Snow Depth

Station Depth Elevation

Earthquake Activity

City Distance Mag. Time & Date
Minimum magnitude displayed is 2.5.

Coastal Water Temperatures

สถานที่ อุณหภูมิ

Nearby Weather Stations